Latest METARs, TAFs and NOTAMs for MYNN


---------------------------------------------------------------------------
	(OBSERVATIONS)
MYNN 311400Z 00000KT 9999 TS FEW014CB SCT016TCU 30/25 A2998 RMK
    TB59 CB N/W TCU E/S-SW VCSH N/S=
MYNN 311300Z 00000KT 9999 -SHRA FEW014CB SCT220 28/22 A2997 RMK
    CB N/SW=
MYNN 311200Z 00000KT 9999 RETS FEW014 SCT016CB BKN220 24/23 A2997
    RMK CB/OVHD RE40 TE40=
MYNN 311115Z 33004KT 9999 -TSRA SCT014TCU BKN016CB 24/23 A2995
    RMK CB/TCU ALQDS=
---------------------------------------------------------------------------
	(TERMINAL AREA FORECAST)
MYNN 310900Z 3112/0112 VRB02KT 9999 VCTS SCT015CB BKN220
    PROB30
    TEMPO 3115/3121 08005G15KT 8000 TSRA BKN015CB=
---------------------------------------------------------------------------
	(NOTAMS)


MYNN A0027/16 AIRMEN ARE ADZ CIRCLING MINIMA CAT C OCA/OCH RAISED
    FM 690/674 TO 770/754 DUE OBST (BUILDINGS) LOC BTN COOR N25
    04 10.56 W077 23 45.24 AND N25 04 14.45 W077 23 52.45 ON
    A QDR OF 072.00DEG AT 4.2NM FM MYNN ARP WITH HIGHEST POINT
    374FT AMSL. BUILDINGS ARE SUITED WITH MEDIUM INST R OBST
    LIGHTS INFORMATION TO BE PUBLISHED IN THE AIP. 05 FEB 20:00
    2016 UNTIL 31 MAY 23:59 2016. CREATED: 05 FEB 19:21 2016

MYNN A0068/13 VOR Y RWY 14 FEEDER RTE FM MAJUR TO MUNIE NOT AVBL
    VOR Y RWY 14 FEEDER RTE FM MELON TO MUNIE NOT AVBL. SFC -
    UNL, 19 APR 19:55 2013 UNTIL PERM. CREATED: 19 APR 19:51
    2013

MYNN A0069/13 VOR Y RWY 09 FEEDER RTE FM MAJUR TO MUSSE NOT AVBL
    REMOVE PROCEDURE NOTE 'RADAR REQUIRED' FM APP CHART. SFC
    - UNL, 19 APR 19:55 2013 UNTIL PERM. CREATED: 19 APR 19:52
    2013

MYNN A0070/13 VOR Y RWY 32 FEEDER RTE FM PRUNE TO WELKS NOT AVBL
    REMOVE PROCEDURE NOTE 'RADAR REQUIRED' FM APP CHART. SFC
    - UNL, 19 APR 19:55 2013 UNTIL PERM. CREATED: 19 APR 19:54
    2013

MYNN A0088/15 WEF JULY 01, 2015 ALL VFR AND IFR FLIGHTS OPR IN
    AND THRU NASSAU FIR/CTA ALL FLIGHTS ARRIVING AND DEPARTING
    MYNN ARE REQUIRED TO FILE A PLN WITH NASSAU FIS FLIGHT PLANS
    SUBMITTED DUR FLT SHOULD NORMALLY BE TRANSMITTED ON NASSAU
    RDO FREQ 128.00 MHZ OR 124.200 MHZ PRIOR TO 25 DME FM ZQA
    NON-COMPLIANT ACFT THAT INTEND TO OPR WI NASSAU CTA/FIR WILL
    NOT BE AUTHORIZED OR PERMITTED. 01 JUL 23:59 2015 UNTIL PERM.
    CREATED: 13 MAY 18:03 2015

MYNN A0108/15 INFORMATION LISTED IN AIC 3/2015 WITH THE EXCEPTION
    OF MYNN AND MYGF RNAV APCH PROC IN THE BAHAMAS ARE NOT AUTH
    DUE TO AIRSPACE CLASSIFICATION RESTRICTIONS. 01 JUN 18:00
    2015 UNTIL PERM. CREATED: 01 JUN 16:52 2015

MYNN A0117/16 CHECKLIST (A) SERIES YEAR=2010 0277 YEAR=2013 0068
    0069 0070 YEAR=2015 0088 0103 0108 0109 0257 0292 0293 0294
    YEAR=2016 0027 0032 0033 0057 0058 0059 0060 0061 0062 0063
    0064 0065 0066 0067 0068 0069 0070 0071 0083 0084 0100 0105
    0106 0107 0108 0109 0110 0116) LATEST PUBLICATIONS AIP AMDT
    01/15 EFFECTIVE MAY 28, 2015 AIC 05/15. 02 MAY 18:00 2016
    UNTIL 31 MAY 23:59 2016. CREATED: 02 MAY 16:48 2016

MYNN B0009/16 CHECKLIST (B) SERIES YEAR=2015 0038 YEAR=2016 0002
    0003 0004 0006 0007 0008 LATEST PUBLICATIONS AIP AMDT 01/15
    EFFECTIVE MAY 28, 2015 AIC 05/15. 03 MAY 18:00 2016 UNTIL
    31 MAY 23:59 2016. CREATED: 03 MAY 17:36 2016

MYNN V0109/16 [DOD PROCEDURAL NOTAM] RUNWAY 14-32 IS NOW 11,126
    FEET LONG. RUNWAY 14 NOW HAS 10,920 FEET OF LANDING DISTANCE
    AVAILABLE BECAUSE OF THE 206 FOOT DISPLACED THRESHOLD. 02
    MAY 16:26 2016 UNTIL 20 JUL 23:59 2016. CREATED: 02 MAY 16:31
    2016

---------------------------------------------------------------------------